Airport Name : Kone

Other Name : Kone

ICAO : NWWD

IATA : KNQ

FAA :

Latitude : -21.054251

Longitude : 164.836972

Country : New Caledonia

Local Date and Time : 21 Jul 2024 18:50

 

TAF (Terminal Aerodrome Forecast)

TAF NWWD 210500Z 2106/2206 22010KT 9999 FEW045 BECMG 2106/2108 VRB03KT BECMG 2122/2201 18010KT

 

METAR (METeorological Aerodrome Report)